Time;durP1;ratioP1;P1;durP2;ratioP2;P2;SDS_P1;SDS_P2;PMS_P1;PMS_P2;Temp;Humidity;BMP_temperature;BMP_pressure;BME280_temperature;BME280_humidity;BME280_pressure;Samples;Min_cycle;Max_cycle;Signal;HPM_P1;HPM_P2
2023/12/25 00:01:11;;;;;;;33.22;3.85;;;;;;;5.10;100.00;97828.75;5058148;28;20595;-65
2023/12/25 00:03:36;;;;;;;29.10;3.58;;;;;;;5.14;100.00;97826.44;5058154;28;20029;-67
2023/12/25 00:06:02;;;;;;;28.00;3.08;;;;;;;5.17;100.00;97817.97;5058646;28;20025;-65
2023/12/25 00:08:27;;;;;;;35.40;4.43;;;;;;;5.23;100.00;97821.50;5059424;28;20029;-66
2023/12/25 00:10:52;;;;;;;42.65;4.43;;;;;;;5.26;100.00;97813.03;5058264;28;20064;-67
2023/12/25 00:13:18;;;;;;;38.15;4.95;;;;;;;5.28;100.00;97809.09;5041396;28;20112;-67
2023/12/25 00:15:43;;;;;;;33.10;4.28;;;;;;;5.32;100.00;97809.44;5060955;28;20031;-66
2023/12/25 00:18:09;;;;;;;41.40;4.85;;;;;;;5.36;100.00;97811.38;5060149;28;20081;-66
2023/12/25 00:20:34;;;;;;;52.20;5.20;;;;;;;5.43;100.00;97803.25;5061206;28;20037;-66
2023/12/25 00:22:59;;;;;;;47.40;5.50;;;;;;;5.49;100.00;97794.25;5041493;28;20059;-66
2023/12/25 00:25:25;;;;;;;45.60;5.22;;;;;;;5.52;100.00;97799.13;5058137;28;20053;-67
2023/12/25 00:27:50;;;;;;;47.22;5.50;;;;;;;5.56;100.00;97796.78;5058904;28;20549;-66
2023/12/25 00:30:15;;;;;;;61.90;6.70;;;;;;;5.57;100.00;97788.56;5055698;28;20116;-66
2023/12/25 00:32:41;;;;;;;54.15;5.65;;;;;;;5.57;100.00;97791.22;5070404;28;20025;-66
2023/12/25 00:35:06;;;;;;;59.60;6.60;;;;;;;5.55;100.00;97785.31;5056229;28;20475;-67
2023/12/25 00:37:32;;;;;;;58.25;6.35;;;;;;;5.55;100.00;97787.97;5058959;28;20127;-66
2023/12/25 00:39:57;;;;;;;69.80;7.32;;;;;;;5.57;100.00;97785.88;5038589;28;20111;-66
2023/12/25 00:42:22;;;;;;;60.60;6.60;;;;;;;5.59;100.00;97783.75;5072097;28;20117;-66
2023/12/25 00:44:48;;;;;;;67.75;6.68;;;;;;;5.68;100.00;97780.72;5081694;28;20051;-65
2023/12/25 00:47:13;;;;;;;77.32;8.70;;;;;;;5.71;100.00;97783.72;5087366;28;20040;-66
2023/12/25 00:49:39;;;;;;;71.88;8.32;;;;;;;5.74;100.00;97790.44;5069754;28;20031;-65
2023/12/25 00:52:04;;;;;;;77.95;10.05;;;;;;;5.74;100.00;97791.22;5067620;28;20024;-68
2023/12/25 00:54:31;;;;;;;86.93;10.02;;;;;;;5.79;100.00;97782.50;5063794;28;20052;-66
2023/12/25 00:56:57;;;;;;;82.55;9.52;;;;;;;5.85;100.00;97781.53;5064667;28;20032;-67
2023/12/25 00:59:22;;;;;;;87.47;9.50;;;;;;;5.88;100.00;97765.03;5077284;28;20033;-65
2023/12/25 01:01:48;;;;;;;72.97;9.15;;;;;;;5.85;100.00;97758.31;5077477;28;20037;-65
2023/12/25 01:04:13;;;;;;;75.82;8.02;;;;;;;5.86;100.00;97762.63;5077674;28;20051;-66
2023/12/25 01:06:39;;;;;;;84.65;9.85;;;;;;;5.89;100.00;97755.97;5077175;28;20031;-66
2023/12/25 01:09:04;;;;;;;90.20;9.90;;;;;;;5.88;100.00;97754.34;5059861;28;20025;-66
2023/12/25 01:11:29;;;;;;;83.28;9.82;;;;;;;5.91;100.00;97748.53;5077720;28;20082;-66
2023/12/25 01:13:55;;;;;;;89.65;9.63;;;;;;;5.93;100.00;97751.81;5074488;28;20387;-65
2023/12/25 01:16:21;;;;;;;91.53;9.75;;;;;;;5.92;100.00;97744.81;5076386;28;20054;-66
2023/12/25 01:18:46;;;;;;;78.88;9.23;;;;;;;5.91;100.00;97737.06;5059829;28;20024;-67
2023/12/25 01:21:12;;;;;;;76.15;9.65;;;;;;;5.94;100.00;97741.94;5077533;28;20088;-66
2023/12/25 01:23:37;;;;;;;74.78;8.35;;;;;;;5.95;100.00;97739.00;5059726;28;20058;-66
2023/12/25 01:26:03;;;;;;;72.70;9.23;;;;;;;5.96;100.00;97729.97;5077284;28;20487;-66
2023/12/25 01:28:28;;;;;;;82.50;9.80;;;;;;;5.95;100.00;97728.34;5077423;28;20122;-67
2023/12/25 01:30:54;;;;;;;78.65;8.60;;;;;;;5.97;100.00;97725.44;5058607;28;20029;-65
2023/12/25 01:33:19;;;;;;;71.18;8.25;;;;;;;5.98;100.00;97738.53;5058871;28;20159;-65
2023/12/25 01:35:45;;;;;;;84.25;9.07;;;;;;;6.01;100.00;97758.59;5059756;28;20027;-66
2023/12/25 01:38:10;;;;;;;42.53;6.05;;;;;;;5.98;100.00;97765.22;5060436;28;20078;-66
2023/12/25 01:40:37;;;;;;;51.38;7.28;;;;;;;5.99;100.00;97755.34;5043971;28;20127;-66
2023/12/25 01:43:02;;;;;;;54.95;7.47;;;;;;;5.86;100.00;97748.44;5078623;28;20052;-67
2023/12/25 01:45:27;;;;;;;51.92;6.28;;;;;;;6.01;100.00;97755.91;5077145;28;20032;-66
2023/12/25 01:47:55;;;;;;;56.97;7.05;;;;;;;5.95;100.00;97764.91;5060288;28;20098;-67
2023/12/25 01:50:20;;;;;;;60.83;7.72;;;;;;;5.98;100.00;97770.56;5058858;28;20040;-65
2023/12/25 01:52:49;;;;;;;51.13;6.93;;;;;;;5.93;100.00;97750.97;5058600;28;20036;-66
2023/12/25 01:55:15;;;;;;;33.97;5.50;;;;;;;5.91;100.00;97747.72;5042822;28;20052;-66
2023/12/25 01:57:41;;;;;;;40.38;5.25;;;;;;;5.84;100.00;97761.25;5058540;28;20499;-66
2023/12/25 02:00:07;;;;;;;35.45;4.88;;;;;;;5.73;100.00;97735.44;5058686;28;20055;-67
2023/12/25 02:02:32;;;;;;;43.83;6.07;;;;;;;5.75;100.00;97739.47;5058827;28;20032;-67
2023/12/25 02:04:57;;;;;;;43.13;5.28;;;;;;;5.68;100.00;97722.03;5058351;28;20400;-67
2023/12/25 02:07:23;;;;;;;51.03;8.40;;;;;;;5.76;100.00;97737.63;5042356;28;20032;-66
2023/12/25 02:09:49;;;;;;;61.17;7.13;;;;;;;5.77;100.00;97745.41;5078879;28;20048;-66
2023/12/25 02:12:15;;;;;;;57.60;7.18;;;;;;;5.71;100.00;97745.56;5049212;28;20067;-67
2023/12/25 02:14:42;;;;;;;53.60;8.05;;;;;;;5.72;100.00;97750.63;5086511;28;20043;-67
2023/12/25 02:17:10;;;;;;;60.05;8.20;;;;;;;5.84;100.00;97777.25;5049862;28;20052;-66
2023/12/25 02:19:40;;;;;;;43.03;5.93;;;;;;;5.78;100.00;97775.53;5083754;28;20031;-67
2023/12/25 02:22:07;;;;;;;23.85;3.83;;;;;;;5.69;100.00;97769.78;5077716;28;20115;-67
2023/12/25 02:24:36;;;;;;;31.13;4.20;;;;;;;5.47;100.00;97759.03;5080127;28;20537;-69
2023/12/25 02:27:02;;;;;;;37.22;5.90;;;;;;;5.25;100.00;97720.78;5080040;28;20028;-67
2023/12/25 02:29:27;;;;;;;44.80;5.65;;;;;;;5.36;100.00;97727.91;5079987;28;20077;-67
2023/12/25 02:31:52;;;;;;;37.13;6.57;;;;;;;5.32;100.00;97713.44;5079751;28;20025;-67
2023/12/25 02:34:18;;;;;;;41.60;5.97;;;;;;;5.29;100.00;97708.59;5061518;28;20030;-69
2023/12/25 02:36:43;;;;;;;41.22;6.05;;;;;;;5.25;100.00;97718.94;5079397;28;20086;-68
2023/12/25 02:39:08;;;;;;;39.95;5.70;;;;;;;5.23;100.00;97714.88;5079348;28;20040;-67
2023/12/25 02:41:34;;;;;;;45.90;7.43;;;;;;;5.23;100.00;97741.53;5061753;28;20135;-66
2023/12/25 02:43:59;;;;;;;42.03;6.32;;;;;;;5.32;100.00;97730.25;5045933;28;20123;-66
2023/12/25 02:46:25;;;;;;;44.35;6.20;;;;;;;5.40;100.00;97732.53;5081411;28;20413;-67
2023/12/25 02:48:50;;;;;;;47.88;7.28;;;;;;;5.48;100.00;97736.66;5063566;28;20044;-67
2023/12/25 02:51:15;;;;;;;39.97;6.78;;;;;;;5.51;100.00;97725.50;5064039;28;20042;-72
2023/12/25 02:53:41;;;;;;;43.03;4.97;;;;;;;5.61;100.00;97746.19;5063337;28;20039;-67
2023/12/25 02:56:06;;;;;;;49.72;6.95;;;;;;;5.64;100.00;97727.84;5063039;28;20116;-65
2023/12/25 02:58:32;;;;;;;39.78;7.03;;;;;;;5.70;100.00;97722.59;5063175;28;20270;-65
2023/12/25 03:00:57;;;;;;;48.67;7.88;;;;;;;5.72;100.00;97723.16;5061676;28;20142;-66
2023/12/25 03:03:24;;;;;;;43.30;7.30;;;;;;;5.78;100.00;97708.84;5044995;28;20037;-66
2023/12/25 03:05:49;;;;;;;47.05;6.40;;;;;;;5.82;100.00;97716.09;5078923;28;20490;-67
2023/12/25 03:08:14;;;;;;;53.47;7.82;;;;;;;5.83;100.00;97714.28;5071507;28;20058;-68
2023/12/25 03:10:41;;;;;;;50.92;7.25;;;;;;;5.84;100.00;97699.88;5090402;28;20016;-66
2023/12/25 03:13:07;;;;;;;32.03;5.63;;;;;;;5.91;100.00;97718.38;5089790;28;20044;-67
2023/12/25 03:15:33;;;;;;;34.03;5.85;;;;;;;5.85;100.00;97706.81;5053309;28;20039;-66
2023/12/25 03:17:58;;;;;;;35.72;5.80;;;;;;;5.87;100.00;97715.41;5068570;28;20029;-66
2023/12/25 03:20:24;;;;;;;30.48;5.40;;;;;;;5.88;100.00;97707.13;5068212;28;20032;-66
2023/12/25 03:22:50;;;;;;;29.55;4.47;;;;;;;5.87;100.00;97721.53;5061314;28;20047;-65
2023/12/25 03:25:15;;;;;;;42.05;5.70;;;;;;;5.83;100.00;97708.94;5061590;28;20391;-65
2023/12/25 03:27:41;;;;;;;27.17;5.20;;;;;;;5.86;100.00;97711.09;5061082;28;20059;-66
2023/12/25 03:30:07;;;;;;;37.45;5.97;;;;;;;5.71;100.00;97694.88;5061010;28;20032;-65
2023/12/25 03:32:34;;;;;;;37.10;6.80;;;;;;;5.82;100.00;97717.97;5079021;28;20033;-66
2023/12/25 03:34:59;;;;;;;34.10;5.38;;;;;;;5.79;100.00;97697.09;5044396;28;20020;-66
2023/12/25 03:37:25;;;;;;;38.33;5.95;;;;;;;5.77;100.00;97701.91;5078536;28;20086;-66
2023/12/25 03:39:51;;;;;;;44.92;6.40;;;;;;;5.80;100.00;97712.09;5061233;28;20037;-66
2023/12/25 03:42:18;;;;;;;30.38;5.22;;;;;;;5.78;100.00;97706.19;5061498;28;20121;-67
2023/12/25 03:44:44;;;;;;;36.53;6.43;;;;;;;5.78;100.00;97703.50;5079320;28;20058;-66
2023/12/25 03:47:11;;;;;;;44.53;6.47;;;;;;;5.79;100.00;97703.25;5078062;28;20130;-65
2023/12/25 03:49:36;;;;;;;55.00;8.82;;;;;;;5.80;100.00;97698.75;5077991;28;20436;-67
2023/12/25 03:52:02;;;;;;;45.17;6.38;;;;;;;5.91;100.00;97694.38;5077539;28;20020;-66
2023/12/25 03:54:28;;;;;;;62.95;9.75;;;;;;;5.95;100.00;97684.84;5077959;28;20021;-67
2023/12/25 03:56:53;;;;;;;42.10;7.13;;;;;;;5.96;100.00;97686.44;5060922;28;20037;-67
2023/12/25 03:59:19;;;;;;;58.38;9.15;;;;;;;5.84;100.00;97667.84;5061298;28;20066;-66
2023/12/25 04:01:44;;;;;;;52.20;8.23;;;;;;;6.02;100.00;97688.13;5061464;28;20036;-66
2023/12/25 04:04:10;;;;;;;41.55;6.90;;;;;;;5.98;100.00;97705.69;5062117;28;20486;-66
2023/12/25 04:06:35;;;;;;;32.92;5.47;;;;;;;5.97;100.00;97694.22;5061144;28;20032;-66
2023/12/25 04:09:00;;;;;;;26.95;5.15;;;;;;;5.92;100.00;97674.63;5078882;28;20399;-65
2023/12/25 04:11:26;;;;;;;27.70;4.53;;;;;;;5.90;100.00;97685.56;5044027;28;20029;-65
2023/12/25 04:13:54;;;;;;;33.42;6.03;;;;;;;5.85;100.00;97674.78;5060358;28;20025;-67
2023/12/25 04:16:20;;;;;;;43.55;6.22;;;;;;;5.86;100.00;97679.06;5078503;28;20021;-66
2023/12/25 04:18:45;;;;;;;41.28;6.88;;;;;;;5.87;100.00;97670.03;5060886;28;20126;-66
2023/12/25 04:21:23;;;;;;;43.65;6.32;;;;;;;5.88;100.00;97669.78;5060107;28;20486;-65
2023/12/25 04:23:50;;;;;;;53.67;8.27;;;;;;;5.96;100.00;97663.25;5079208;28;20024;-66
2023/12/25 04:26:16;;;;;;;44.88;7.13;;;;;;;5.98;100.00;97665.66;5079027;28;20024;-66
2023/12/25 04:28:42;;;;;;;50.58;8.13;;;;;;;5.97;100.00;97664.88;5079002;28;20029;-65
2023/12/25 04:31:07;;;;;;;40.38;6.72;;;;;;;5.95;100.00;97650.16;5060577;28;20058;-66
2023/12/25 04:33:32;;;;;;;45.08;7.53;;;;;;;6.08;100.00;97663.13;5060791;28;20040;-66
2023/12/25 04:35:58;;;;;;;42.63;5.93;;;;;;;6.05;100.00;97674.28;5060453;28;20036;-66
2023/12/25 04:38:24;;;;;;;39.50;6.45;;;;;;;5.95;100.00;97658.94;5043649;28;20028;-66
2023/12/25 04:40:50;;;;;;;41.22;6.78;;;;;;;5.86;100.00;97668.41;5059417;28;20446;-66
2023/12/25 04:43:15;;;;;;;47.95;7.88;;;;;;;5.86;100.00;97650.56;5059514;28;20036;-66
2023/12/25 04:45:41;;;;;;;46.90;6.80;;;;;;;5.79;100.00;97662.44;5078726;28;20036;-66
2023/12/25 04:48:06;;;;;;;28.38;5.18;;;;;;;5.78;100.00;97652.81;5078035;28;20032;-66
2023/12/25 04:50:33;;;;;;;30.27;5.40;;;;;;;5.74;100.00;97646.38;5043459;28;20391;-66
2023/12/25 04:52:59;;;;;;;49.15;7.78;;;;;;;5.58;100.00;97616.00;5078083;28;20032;-65
2023/12/25 04:55:24;;;;;;;51.50;8.02;;;;;;;5.70;100.00;97656.72;5072144;28;20032;-67
2023/12/25 04:57:49;;;;;;;46.30;7.65;;;;;;;5.61;100.00;97629.63;5076965;28;20491;-66
2023/12/25 05:00:15;;;;;;;52.08;7.47;;;;;;;5.69;100.00;97643.63;5060050;28;20133;-66
2023/12/25 05:02:40;;;;;;;51.42;7.53;;;;;;;5.69;100.00;97651.63;5059721;28;20065;-66
2023/12/25 05:05:06;;;;;;;48.33;8.18;;;;;;;5.70;100.00;97635.38;5077496;28;20033;-66
2023/12/25 05:07:31;;;;;;;43.88;6.03;;;;;;;5.71;100.00;97636.19;5042713;28;20479;-66
2023/12/25 05:09:57;;;;;;;52.33;7.28;;;;;;;5.63;100.00;97614.22;5059287;28;20082;-66
2023/12/25 05:12:22;;;;;;;53.55;7.88;;;;;;;5.64;100.00;97628.34;5077675;28;20107;-67
2023/12/25 05:14:47;;;;;;;51.80;8.00;;;;;;;5.59;100.00;97633.59;5076298;28;20479;-67
2023/12/25 05:17:13;;;;;;;44.60;7.28;;;;;;;5.59;100.00;97626.41;5058777;28;20029;-66
2023/12/25 05:19:38;;;;;;;60.22;8.95;;;;;;;5.57;100.00;97635.72;5058984;28;20032;-65
2023/12/25 05:22:05;;;;;;;53.35;7.82;;;;;;;5.56;100.00;97628.75;5076595;28;20078;-66
2023/12/25 05:24:32;;;;;;;47.38;7.97;;;;;;;5.60;100.00;97622.69;5057961;28;20028;-65
2023/12/25 05:26:58;;;;;;;45.17;7.53;;;;;;;5.63;100.00;97624.88;5059103;28;20060;-66
2023/12/25 05:29:23;;;;;;;40.55;5.78;;;;;;;5.68;100.00;97623.34;5041482;28;20035;-66
2023/12/25 05:31:50;;;;;;;32.80;5.68;;;;;;;5.70;100.00;97626.56;5059021;28;20025;-66
2023/12/25 05:34:15;;;;;;;59.83;9.40;;;;;;;5.72;100.00;97633.25;5079603;28;20031;-67
2023/12/25 05:36:40;;;;;;;43.97;6.30;;;;;;;5.61;100.00;97616.31;5050469;28;20016;-66
2023/12/25 05:39:06;;;;;;;53.40;7.88;;;;;;;5.77;100.00;97614.66;5067775;28;20043;-66
2023/12/25 05:41:32;;;;;;;51.08;7.72;;;;;;;5.82;100.00;97621.91;5082913;28;20052;-66
2023/12/25 05:43:57;;;;;;;59.83;8.50;;;;;;;5.81;100.00;97618.44;5080917;28;20036;-66
2023/12/25 05:46:22;;;;;;;46.60;6.97;;;;;;;5.89;100.00;97612.69;5057557;28;20036;-67
2023/12/25 05:48:48;;;;;;;47.88;7.32;;;;;;;5.94;100.00;97613.84;5058884;28;20186;-66
2023/12/25 05:51:13;;;;;;;65.00;8.65;;;;;;;5.93;100.00;97622.88;5075977;28;20066;-66
2023/12/25 05:53:38;;;;;;;56.80;8.30;;;;;;;5.96;100.00;97615.22;5057595;28;20031;-66
2023/12/25 05:56:04;;;;;;;64.50;9.27;;;;;;;5.98;100.00;97615.75;5075720;28;20044;-66
2023/12/25 05:58:29;;;;;;;54.17;8.70;;;;;;;6.00;100.00;97612.84;5058560;28;20028;-67
2023/12/25 06:00:55;;;;;;;61.25;9.20;;;;;;;5.95;100.00;97602.91;5057311;28;20035;-67
2023/12/25 06:03:22;;;;;;;60.80;9.10;;;;;;;6.01;100.00;97620.59;5057431;28;20062;-66
2023/12/25 06:05:47;;;;;;;56.53;8.90;;;;;;;6.09;100.00;97619.34;5075868;28;20483;-67
2023/12/25 06:08:12;;;;;;;59.15;8.93;;;;;;;6.19;100.00;97624.84;5041171;28;20033;-67
2023/12/25 06:10:38;;;;;;;57.20;9.40;;;;;;;6.12;100.00;97605.50;5058827;28;20033;-67
2023/12/25 06:13:03;;;;;;;68.45;9.95;;;;;;;6.30;100.00;97623.09;5075829;28;20028;-68
2023/12/25 06:15:28;;;;;;;51.25;8.20;;;;;;;6.30;100.00;97621.22;5076080;28;20119;-67
2023/12/25 06:17:54;;;;;;;67.65;10.07;;;;;;;6.25;100.00;97599.78;5057884;28;20115;-67
2023/12/25 06:20:20;;;;;;;59.80;8.93;;;;;;;6.36;100.00;97622.09;5056226;28;20024;-66
2023/12/25 06:22:46;;;;;;;61.13;9.52;;;;;;;6.43;100.00;97630.72;5076152;28;20025;-66
2023/12/25 06:25:12;;;;;;;53.00;8.57;;;;;;;6.46;100.00;97634.78;5057933;28;20031;-67
2023/12/25 06:27:37;;;;;;;67.93;8.55;;;;;;;6.45;100.00;97641.94;5057993;28;20048;-68
2023/12/25 06:30:04;;;;;;;45.50;7.93;;;;;;;6.47;100.00;97642.50;5058585;28;20033;-67
2023/12/25 06:32:30;;;;;;;44.10;7.57;;;;;;;6.55;100.00;97635.91;5075340;28;20017;-67
2023/12/25 06:34:55;;;;;;;63.03;8.43;;;;;;;6.54;100.00;97645.78;5075813;28;20024;-68
2023/12/25 06:37:20;;;;;;;46.08;7.75;;;;;;;6.55;100.00;97641.25;5041572;28;20040;-68
2023/12/25 06:39:46;;;;;;;53.88;9.00;;;;;;;6.28;100.00;97607.31;5075798;28;20032;-67
2023/12/25 06:42:11;;;;;;;48.95;7.82;;;;;;;6.55;100.00;97642.06;5041729;28;20059;-67
2023/12/25 06:44:38;;;;;;;50.10;8.85;;;;;;;6.50;100.00;97642.03;5075791;28;20395;-66
2023/12/25 06:47:04;;;;;;;49.15;7.85;;;;;;;6.52;100.00;97637.25;5042945;28;20368;-66
2023/12/25 06:49:29;;;;;;;54.50;7.65;;;;;;;6.52;100.00;97650.59;5043955;28;20128;-69
2023/12/25 06:51:55;;;;;;;58.95;9.18;;;;;;;6.53;100.00;97657.53;5059284;28;20041;-67
2023/12/25 06:54:20;;;;;;;48.83;8.35;;;;;;;6.54;100.00;97661.81;5077563;28;20044;-67
2023/12/25 06:56:46;;;;;;;43.83;8.18;;;;;;;6.58;100.00;97657.59;5076954;28;20663;-67
2023/12/25 06:59:11;;;;;;;58.17;8.95;;;;;;;6.59;100.00;97661.91;5076683;28;20037;-67
2023/12/25 07:01:36;;;;;;;50.08;7.88;;;;;;;6.59;100.00;97672.59;5042586;28;20036;-66
2023/12/25 07:04:02;;;;;;;46.95;7.57;;;;;;;6.63;100.00;97683.56;5060835;28;20040;-66
2023/12/25 07:06:27;;;;;;;36.83;6.00;;;;;;;6.66;100.00;97684.94;5081901;28;20028;-67
2023/12/25 07:08:52;;;;;;;49.83;7.15;;;;;;;6.65;100.00;97692.13;5062439;28;20475;-67
2023/12/25 07:11:18;;;;;;;44.45;8.07;;;;;;;6.67;100.00;97698.03;5062035;28;20107;-67
2023/12/25 07:13:43;;;;;;;56.45;7.15;;;;;;;6.65;100.00;97704.69;5062979;28;20028;-66
2023/12/25 07:16:09;;;;;;;56.03;9.05;;;;;;;6.66;100.00;97703.66;5062157;28;20024;-67
2023/12/25 07:18:35;;;;;;;52.95;7.43;;;;;;;6.56;100.00;97696.31;5079763;28;20075;-67
2023/12/25 07:21:00;;;;;;;64.55;9.85;;;;;;;6.66;100.00;97717.00;5061993;28;20032;-68
2023/12/25 07:23:26;;;;;;;54.72;7.93;;;;;;;6.68;100.00;97710.34;5045644;28;20037;-67
2023/12/25 07:25:51;;;;;;;44.28;7.20;;;;;;;6.76;100.00;97733.16;5062591;28;20430;-68
2023/12/25 07:28:16;;;;;;;55.35;8.75;;;;;;;6.73;100.00;97730.97;5079818;28;20036;-66
2023/12/25 07:30:43;;;;;;;38.33;6.35;;;;;;;6.72;100.00;97734.69;5080904;28;20116;-67
2023/12/25 07:33:09;;;;;;;51.08;8.88;;;;;;;6.68;100.00;97733.56;5061991;28;20029;-66
2023/12/25 07:35:35;;;;;;;48.88;7.00;;;;;;;6.73;100.00;97737.13;5079617;28;20028;-67
2023/12/25 07:38:00;;;;;;;46.33;6.50;;;;;;;6.79;100.00;97759.38;5061315;28;20036;-68
2023/12/25 07:40:26;;;;;;;43.85;6.88;;;;;;;6.68;100.00;97746.94;5061283;28;20024;-67
2023/12/25 07:42:51;;;;;;;51.10;8.00;;;;;;;6.83;100.00;97763.16;5079194;28;20068;-66
2023/12/25 07:45:17;;;;;;;43.15;7.55;;;;;;;6.75;100.00;97769.72;5044303;28;20024;-67
2023/12/25 07:47:42;;;;;;;39.50;6.05;;;;;;;6.66;100.00;97759.75;5061473;28;20036;-67
2023/12/25 07:50:08;;;;;;;42.90;6.82;;;;;;;6.76;100.00;97763.34;5061972;28;20037;-68
2023/12/25 07:52:34;;;;;;;44.63;7.18;;;;;;;6.75;100.00;97792.97;5078601;28;20165;-70
2023/12/25 07:54:59;;;;;;;33.08;5.00;;;;;;;6.70;100.00;97772.34;5061765;28;20153;-70
2023/12/25 07:57:25;;;;;;;28.60;5.05;;;;;;;6.77;100.00;97788.19;5029357;28;20037;-70
2023/12/25 07:59:51;;;;;;;47.22;7.03;;;;;;;6.63;100.00;97792.31;5063249;28;20032;-70
2023/12/25 08:02:16;;;;;;;44.78;6.88;;;;;;;6.45;100.00;97778.16;5062309;28;20091;-69
2023/12/25 08:04:41;;;;;;;34.25;4.90;;;;;;;6.64;100.00;97825.97;5062237;28;20025;-68
2023/12/25 08:07:08;;;;;;;45.30;6.95;;;;;;;6.69;100.00;97829.53;5045067;28;20427;-73
2023/12/25 08:09:33;;;;;;;43.25;6.82;;;;;;;6.65;100.00;97827.59;5061413;28;20111;-68
2023/12/25 08:11:59;;;;;;;33.45;5.05;;;;;;;6.63;100.00;97827.84;5062633;28;20075;-68
2023/12/25 08:14:24;;;;;;;41.53;6.18;;;;;;;6.61;100.00;97823.78;5079474;28;20032;-67
2023/12/25 08:16:50;;;;;;;34.85;6.70;;;;;;;6.64;100.00;97836.66;5061793;28;20028;-66
2023/12/25 08:19:15;;;;;;;45.45;6.18;;;;;;;6.51;100.00;97843.16;5062426;28;20056;-67
2023/12/25 08:21:41;;;;;;;36.75;6.82;;;;;;;6.44;100.00;97843.31;5061161;28;20032;-64
2023/12/25 08:24:06;;;;;;;30.38;6.07;;;;;;;6.50;100.00;97850.38;5061101;28;20061;-65
2023/12/25 08:26:33;;;;;;;39.63;6.15;;;;;;;6.53;100.00;97857.09;5043741;28;20028;-64
2023/12/25 08:28:58;;;;;;;26.95;4.93;;;;;;;6.51;100.00;97841.28;5060039;28;20028;-64
2023/12/25 08:31:23;;;;;;;30.25;4.57;;;;;;;6.38;100.00;97838.16;5060200;28;20028;-66
2023/12/25 08:33:49;;;;;;;37.58;6.10;;;;;;;6.51;100.00;97892.03;5060238;28;20138;-67
2023/12/25 08:36:14;;;;;;;33.78;6.38;;;;;;;6.44;100.00;97896.75;5074166;28;20032;-67
2023/12/25 08:38:39;;;;;;;28.60;4.90;;;;;;;6.32;100.00;97858.63;5070188;28;20036;-66
2023/12/25 08:41:05;;;;;;;31.95;4.63;;;;;;;6.48;100.00;97900.53;5076422;28;20064;-66
2023/12/25 08:43:31;;;;;;;28.15;5.25;;;;;;;6.28;100.00;97877.00;5077514;28;20028;-65
2023/12/25 08:45:57;;;;;;;31.40;5.63;;;;;;;6.28;100.00;97892.22;5078480;28;20032;-66
2023/12/25 08:48:23;;;;;;;36.20;4.85;;;;;;;6.41;100.00;97929.28;5060729;28;20119;-66
2023/12/25 08:50:49;;;;;;;29.63;4.60;;;;;;;6.38;100.00;97936.97;5078157;28;20036;-67
2023/12/25 08:53:14;;;;;;;20.80;4.30;;;;;;;6.43;100.00;97923.72;5076320;28;20032;-66
2023/12/25 08:55:39;;;;;;;22.63;4.65;;;;;;;6.40;100.00;97922.34;5076567;28;20565;-66
2023/12/25 08:58:05;;;;;;;29.13;5.55;;;;;;;6.39;100.00;97939.41;5077737;28;20105;-66
2023/12/25 09:00:30;;;;;;;37.50;5.45;;;;;;;6.26;100.00;97942.41;5060212;28;20032;-67
2023/12/25 09:02:56;;;;;;;25.25;5.20;;;;;;;6.25;100.00;97938.09;5059640;28;20558;-67
2023/12/25 09:05:21;;;;;;;23.38;3.80;;;;;;;6.38;100.00;97974.38;5076008;28;20107;-66
2023/12/25 09:07:46;;;;;;;29.23;4.55;;;;;;;6.32;100.00;97965.44;5077689;28;20039;-66
2023/12/25 09:10:13;;;;;;;36.17;5.70;;;;;;;6.19;100.00;97939.06;5076266;28;20025;-66
2023/12/25 09:12:40;;;;;;;34.47;5.68;;;;;;;6.34;100.00;97987.38;5077314;28;20029;-66
2023/12/25 09:15:06;;;;;;;20.83;4.75;;;;;;;6.33;100.00;97986.59;5075825;28;20096;-66
2023/12/25 09:17:31;;;;;;;21.00;4.25;;;;;;;6.30;100.00;97994.28;5076710;28;20052;-67
2023/12/25 09:19:56;;;;;;;28.30;4.93;;;;;;;6.26;100.00;97980.59;5073583;28;20043;-66
2023/12/25 09:22:24;;;;;;;32.88;5.68;;;;;;;6.31;100.00;97991.34;5075264;28;20083;-67
2023/12/25 09:24:53;;;;;;;39.97;4.95;;;;;;;6.25;100.00;97992.31;5076125;28;20025;-67
2023/12/25 09:27:18;;;;;;;22.98;3.65;;;;;;;6.26;100.00;98006.50;5076403;28;20035;-67
2023/12/25 09:29:44;;;;;;;26.83;4.97;;;;;;;6.28;100.00;98015.84;5076577;28;20036;-70
2023/12/25 09:32:09;;;;;;;23.27;3.63;;;;;;;6.30;100.00;98021.78;5058627;28;20028;-66
2023/12/25 09:34:34;;;;;;;30.48;5.85;;;;;;;6.25;100.00;98019.00;5076593;28;20038;-66
2023/12/25 09:37:00;;;;;;;26.45;5.28;;;;;;;6.24;100.00;98008.56;5075319;28;20028;-67
2023/12/25 09:39:25;;;;;;;26.27;4.25;;;;;;;6.20;100.00;98024.28;5075602;28;20062;-66
2023/12/25 09:41:51;;;;;;;17.13;3.67;;;;;;;6.16;100.00;98022.28;5076491;28;20059;-67
2023/12/25 09:44:16;;;;;;;28.10;4.30;;;;;;;6.07;100.00;98016.53;5041614;28;20578;-67
2023/12/25 09:46:44;;;;;;;30.67;5.43;;;;;;;6.22;100.00;98051.53;5076539;28;20020;-66
2023/12/25 09:49:09;;;;;;;18.88;3.30;;;;;;;6.20;100.00;98040.28;5058750;28;20395;-67
2023/12/25 09:51:36;;;;;;;26.27;5.13;;;;;;;6.21;100.00;98051.78;5076729;28;20149;-66
2023/12/25 09:54:02;;;;;;;28.40;5.13;;;;;;;6.13;100.00;98039.63;5058769;28;20082;-66
2023/12/25 09:56:29;;;;;;;19.52;3.33;;;;;;;6.15;100.00;98058.06;5058451;28;20118;-66
2023/12/25 09:58:57;;;;;;;20.50;4.53;;;;;;;6.16;100.00;98073.03;5077583;28;20420;-67
2023/12/25 10:01:23;;;;;;;49.45;5.00;;;;;;;6.11;100.00;98084.44;5077804;28;20039;-67
2023/12/25 10:03:50;;;;;;;20.15;4.57;;;;;;;6.10;100.00;98075.59;5077004;28;20025;-66
2023/12/25 10:06:18;;;;;;;29.73;4.95;;;;;;;6.13;100.00;98087.69;5077504;28;20029;-66
2023/12/25 10:08:44;;;;;;;28.05;4.80;;;;;;;6.15;100.00;98098.09;5078715;28;20051;-66
2023/12/25 10:11:13;;;;;;;37.25;6.60;;;;;;;6.12;100.00;98099.38;5060259;28;20526;-66
2023/12/25 10:13:42;;;;;;;29.83;5.03;;;;;;;6.08;100.00;98114.25;5059569;28;20051;-66
2023/12/25 10:16:08;;;;;;;27.50;4.88;;;;;;;6.07;100.00;98099.28;5060187;28;20070;-67
2023/12/25 10:18:36;;;;;;;24.00;4.13;;;;;;;6.08;100.00;98104.38;5077938;28;20039;-66
2023/12/25 10:21:02;;;;;;;26.83;4.45;;;;;;;6.05;100.00;98096.84;5059323;28;20024;-67
2023/12/25 10:23:29;;;;;;;27.77;5.20;;;;;;;5.98;100.00;98114.06;5059629;28;20513;-66
2023/12/25 10:25:55;;;;;;;19.02;3.88;;;;;;;6.08;100.00;98135.63;5059408;28;20025;-68
2023/12/25 10:28:26;;;;;;;21.27;3.85;;;;;;;6.08;100.00;98123.06;5059620;28;20028;-67
2023/12/25 10:31:06;;;;;;;21.10;4.32;;;;;;;6.09;100.00;98148.75;5077450;28;20017;-67
2023/12/25 10:33:32;;;;;;;22.27;3.88;;;;;;;6.07;100.00;98169.50;5059482;28;20020;-68
2023/12/25 10:36:05;;;;;;;23.02;3.95;;;;;;;6.13;100.00;98161.63;5042352;28;20047;-68
2023/12/25 10:38:33;;;;;;;28.92;5.25;;;;;;;6.09;100.00;98172.78;5060478;28;20028;-68
2023/12/25 10:41:15;;;;;;;23.65;3.72;;;;;;;6.08;100.00;98178.31;5062394;28;20053;-68
2023/12/25 10:43:42;;;;;;;19.75;3.47;;;;;;;6.09;100.00;98182.63;5081195;28;20487;-65
2023/12/25 10:46:08;;;;;;;22.40;4.22;;;;;;;6.14;100.00;98203.28;5066260;28;20123;-68
2023/12/25 10:48:34;;;;;;;21.67;4.43;;;;;;;6.20;100.00;98210.38;5064172;28;20547;-67
2023/12/25 10:51:01;;;;;;;19.95;3.42;;;;;;;6.18;100.00;98212.44;5048285;28;20036;-67
2023/12/25 10:53:27;;;;;;;18.05;3.55;;;;;;;6.23;100.00;98215.25;5083061;28;20040;-66
2023/12/25 10:55:53;;;;;;;15.32;2.63;;;;;;;6.30;100.00;98227.41;5049271;28;20111;-68
2023/12/25 10:58:20;;;;;;;17.33;3.53;;;;;;;6.26;100.00;98226.25;5066109;28;20052;-70
2023/12/25 11:00:56;;;;;;;21.30;3.45;;;;;;;6.32;100.00;98237.84;5066267;28;20020;-67
2023/12/25 11:03:22;;;;;;;18.10;3.50;;;;;;;6.30;100.00;98248.78;5083713;28;20517;-68
2023/12/25 11:05:48;;;;;;;20.23;3.35;;;;;;;6.29;100.00;98246.31;5081114;28;20084;-67
2023/12/25 11:08:15;;;;;;;14.20;3.40;;;;;;;6.20;100.00;98253.91;5046907;28;20028;-67
2023/12/25 11:10:42;;;;;;;16.77;3.25;;;;;;;6.28;100.00;98266.06;5063552;28;20052;-69
2023/12/25 11:13:08;;;;;;;22.02;4.30;;;;;;;6.24;100.00;98270.25;5048099;28;20059;-67
2023/12/25 11:15:33;;;;;;;25.00;4.03;;;;;;;6.19;100.00;98246.94;5047430;28;20028;-66
2023/12/25 11:17:59;;;;;;;18.60;3.63;;;;;;;6.16;100.00;98246.56;5063008;28;20033;-66